Time;durP1;ratioP1;P1;durP2;ratioP2;P2;SDS_P1;SDS_P2;PMS_P1;PMS_P2;Temp;Humidity;BMP_temperature;BMP_pressure;BME280_temperature;BME280_humidity;BME280_pressure;Samples;Min_cycle;Max_cycle;Signal;HPM_P1;HPM_P2
2022/01/15 00:01:57;;;;;;;17.02;7.10;;;6.50;99.90;;;;;;5028737;28;20033;-76
2022/01/15 00:04:23;;;;;;;17.08;7.65;;;6.50;99.90;;;;;;5027028;28;20505;-76
2022/01/15 00:06:49;;;;;;;13.27;6.95;;;6.40;99.90;;;;;;5037123;28;20037;-76
2022/01/15 00:09:15;;;;;;;15.23;7.30;;;6.40;99.90;;;;;;5038295;28;20045;-76
2022/01/15 00:11:42;;;;;;;15.43;7.03;;;6.50;99.90;;;;;;5034040;28;20032;-76
2022/01/15 00:14:24;;;;;;;15.98;7.10;;;6.50;99.90;;;;;;5026442;28;20602;-76
2022/01/15 00:16:57;;;;;;;15.63;6.85;;;6.50;99.90;;;;;;5036335;28;20045;-76
2022/01/15 00:19:40;;;;;;;18.52;8.60;;;6.50;99.90;;;;;;5015291;28;20136;-76
2022/01/15 00:22:05;;;;;;;18.90;7.90;;;6.40;99.90;;;;;;5027895;28;20065;-76
2022/01/15 00:24:31;;;;;;;15.57;7.15;;;6.40;99.90;;;;;;5047790;28;20052;-76
2022/01/15 00:26:57;;;;;;;15.48;6.90;;;6.50;99.90;;;;;;5016995;28;20049;-76
2022/01/15 00:29:22;;;;;;;16.33;7.57;;;6.40;99.90;;;;;;5032034;28;20547;-76
2022/01/15 00:31:48;;;;;;;17.77;7.97;;;6.40;99.90;;;;;;5027920;28;20049;-76
2022/01/15 00:34:14;;;;;;;33.75;9.27;;;6.50;99.90;;;;;;5030568;28;20052;-76
2022/01/15 00:36:39;;;;;;;16.88;7.97;;;6.40;99.90;;;;;;5030993;28;20048;-76
2022/01/15 00:39:05;;;;;;;16.85;8.35;;;6.40;99.90;;;;;;5029803;28;20553;-76
2022/01/15 00:41:31;;;;;;;15.98;8.43;;;6.40;99.90;;;;;;5030033;28;20041;-76
2022/01/15 00:43:56;;;;;;;38.42;8.98;;;6.40;99.90;;;;;;5004327;28;20045;-76
2022/01/15 00:46:22;;;;;;;19.25;8.35;;;6.40;99.90;;;;;;5014422;28;20052;-76
2022/01/15 00:48:48;;;;;;;21.80;8.15;;;6.30;99.90;;;;;;5010188;28;20049;-76
2022/01/15 00:51:13;;;;;;;15.35;8.23;;;6.20;99.90;;;;;;5029739;28;20748;-76
2022/01/15 00:53:39;;;;;;;15.30;7.97;;;6.30;99.90;;;;;;5059766;28;20112;-76
2022/01/15 00:56:05;;;;;;;16.58;7.90;;;6.30;99.90;;;;;;5010432;28;20041;-76
2022/01/15 00:58:30;;;;;;;16.33;8.38;;;6.30;99.90;;;;;;5048416;28;20512;-77
2022/01/15 01:00:57;;;;;;;18.90;7.72;;;6.30;99.90;;;;;;5038679;28;20040;-76
2022/01/15 01:03:23;;;;;;;15.00;6.90;;;6.30;99.90;;;;;;5012859;28;20053;-76
2022/01/15 01:05:48;;;;;;;15.40;7.57;;;6.30;99.90;;;;;;5013959;28;20753;-76
2022/01/15 01:08:14;;;;;;;14.18;6.45;;;6.30;99.90;;;;;;5021511;28;20074;-76
2022/01/15 01:10:59;;;;;;;14.27;6.97;;;6.20;99.90;;;;;;5043545;28;20057;-76
2022/01/15 01:24:26;;;;;;;13.20;6.63;;;6.10;99.90;;;;;;5028063;28;20052;-76
2022/01/15 01:34:19;;;;;;;13.32;6.50;;;6.10;99.90;;;;;;5064253;28;20518;-76
2022/01/15 01:36:58;;;;;;;11.57;5.93;;;6.10;99.90;;;;;;5031730;28;20052;-76
2022/01/15 01:39:32;;;;;;;14.20;6.20;;;6.10;99.90;;;;;;5047006;28;20080;-77
2022/01/15 01:44:38;;;;;;;15.43;6.15;;;6.20;99.90;;;;;;5063404;28;20512;-76
2022/01/15 01:47:10;;;;;;;13.88;5.72;;;6.20;99.90;;;;;;5043058;28;20048;-76
2022/01/15 01:49:35;;;;;;;;;;;6.10;99.90;;;;;;5062470;28;20048;-76
2022/01/15 01:52:01;;;;;;;9.38;3.75;;;6.10;99.90;;;;;;5066188;28;19921;-76
2022/01/15 01:54:27;;;;;;;8.90;3.20;;;6.10;99.90;;;;;;5035311;28;20133;-76
2022/01/15 01:56:52;;;;;;;8.48;3.25;;;6.10;99.90;;;;;;5046944;28;20052;-76
2022/01/15 01:59:18;;;;;;;8.40;3.35;;;6.10;99.90;;;;;;5021539;28;20040;-77
2022/01/15 02:01:44;;;;;;;8.32;3.28;;;6.10;99.90;;;;;;5063074;28;20264;-77
2022/01/15 02:04:09;;;;;;;8.68;3.35;;;6.10;99.90;;;;;;5031329;28;20094;-77
2022/01/15 02:06:36;;;;;;;9.55;3.10;;;6.00;99.90;;;;;;5022021;28;20088;-77
2022/01/15 02:09:05;;;;;;;7.10;2.90;;;6.00;99.90;;;;;;5066199;28;20087;-76
2022/01/15 02:11:30;;;;;;;8.15;3.30;;;6.00;99.90;;;;;;5046943;28;20037;-76
2022/01/15 02:13:56;;;;;;;6.75;2.80;;;6.00;99.90;;;;;;5029439;28;20379;-77
2022/01/15 02:16:22;;;;;;;9.10;3.13;;;6.10;99.90;;;;;;5031200;28;20052;-76
2022/01/15 02:18:55;;;;;;;8.27;3.20;;;6.10;99.90;;;;;;5014040;28;20033;-77
2022/01/15 02:23:53;;;;;;;7.97;3.10;;;6.00;99.90;;;;;;5030791;28;20060;-76
2022/01/15 02:26:24;;;;;;;6.18;2.60;;;6.10;99.90;;;;;;5041811;28;20394;-76
2022/01/15 02:28:58;;;;;;;8.40;2.88;;;6.10;99.90;;;;;;5021276;28;20053;-76
2022/01/15 02:31:27;;;;;;;7.97;3.55;;;6.10;99.90;;;;;;5047234;28;20056;-76
2022/01/15 02:33:54;;;;;;;7.68;3.17;;;6.10;99.90;;;;;;5037317;28;20037;-76
2022/01/15 02:36:23;;;;;;;7.40;3.05;;;6.10;99.90;;;;;;5031283;28;20049;-78
2022/01/15 02:38:50;;;;;;;7.30;2.50;;;6.10;99.90;;;;;;5027284;28;20069;-75
2022/01/15 02:41:27;;;;;;;8.38;3.30;;;6.10;99.90;;;;;;5021680;28;20056;-76
2022/01/15 02:43:54;;;;;;;8.73;2.60;;;6.10;99.90;;;;;;5004679;28;20059;-77
2022/01/15 02:48:57;;;;;;;7.35;3.05;;;6.10;99.90;;;;;;5018413;28;20413;-76
2022/01/15 02:51:25;;;;;;;6.70;2.70;;;6.00;99.90;;;;;;5062375;28;20044;-76
2022/01/15 02:53:55;;;;;;;8.55;3.00;;;6.20;99.90;;;;;;5024012;28;20110;-77
2022/01/15 02:56:35;;;;;;;10.15;3.40;;;6.00;99.90;;;;;;5030393;28;20049;-76
2022/01/15 02:59:06;;;;;;;8.00;3.33;;;6.00;99.90;;;;;;5022295;28;20047;-76
2022/01/15 03:01:32;;;;;;;9.70;3.10;;;6.00;99.90;;;;;;5049625;28;20126;-76
2022/01/15 03:03:58;;;;;;;9.52;3.55;;;6.00;99.90;;;;;;5012571;28;20083;-76
2022/01/15 03:06:24;;;;;;;8.68;3.50;;;6.00;99.90;;;;;;5048070;28;20759;-76
2022/01/15 03:08:51;;;;;;;8.15;3.38;;;5.90;99.90;;;;;;5048086;28;20604;-76
2022/01/15 03:11:17;;;;;;;9.40;3.40;;;6.00;99.90;;;;;;4998231;28;20041;-76
2022/01/15 03:13:44;;;;;;;8.60;3.72;;;6.00;99.90;;;;;;5004760;28;20428;-76
2022/01/15 03:16:13;;;;;;;7.78;3.22;;;6.00;99.90;;;;;;5015263;28;20057;-76
2022/01/15 03:18:38;;;;;;;10.35;3.38;;;6.00;99.90;;;;;;5047774;28;20067;-76
2022/01/15 03:21:05;;;;;;;9.05;2.97;;;6.00;99.90;;;;;;5062021;28;20505;-76
2022/01/15 03:23:30;;;;;;;8.48;2.97;;;6.00;99.90;;;;;;5026655;28;20045;-76
2022/01/15 03:25:57;;;;;;;8.70;3.58;;;6.00;99.90;;;;;;5029778;28;20506;-75
2022/01/15 03:28:22;;;;;;;9.95;3.40;;;6.00;99.90;;;;;;5040129;28;20102;-75
2022/01/15 03:30:49;;;;;;;10.18;3.70;;;6.00;99.90;;;;;;5015465;28;20487;-76
2022/01/15 03:33:14;;;;;;;7.13;2.80;;;6.00;99.90;;;;;;5030795;28;20040;-76
2022/01/15 03:35:40;;;;;;;9.13;3.78;;;6.00;99.90;;;;;;5029763;28;20041;-76
2022/01/15 03:38:06;;;;;;;8.45;3.50;;;6.00;99.90;;;;;;5029494;28;20076;-76
2022/01/15 03:40:33;;;;;;;8.15;3.28;;;6.00;99.90;;;;;;5028774;28;20468;-76
2022/01/15 03:42:59;;;;;;;10.77;4.00;;;6.00;99.90;;;;;;5034807;28;20136;-75
2022/01/15 03:45:25;;;;;;;8.90;3.72;;;6.00;99.90;;;;;;5038247;28;20059;-76
2022/01/15 03:47:51;;;;;;;9.23;3.60;;;6.00;99.90;;;;;;5039878;28;20044;-76
2022/01/15 03:50:18;;;;;;;9.98;3.90;;;6.00;99.90;;;;;;5022807;28;20128;-76
2022/01/15 03:52:44;;;;;;;11.65;3.90;;;6.00;99.90;;;;;;5029308;28;20041;-76
2022/01/15 03:55:12;;;;;;;10.68;3.70;;;5.90;99.90;;;;;;5043121;28;20045;-76
2022/01/15 03:57:38;;;;;;;11.85;4.18;;;5.90;99.90;;;;;;5033961;28;20497;-76
2022/01/15 04:00:09;;;;;;;12.68;4.50;;;5.90;99.90;;;;;;5015312;28;20564;-76
2022/01/15 04:02:35;;;;;;;11.75;4.38;;;5.90;99.90;;;;;;5045372;28;20056;-76
2022/01/15 04:05:01;;;;;;;9.10;4.00;;;5.90;99.90;;;;;;5012583;28;20053;-76
2022/01/15 04:07:26;;;;;;;12.65;4.28;;;5.90;99.90;;;;;;5026001;28;20071;-77
2022/01/15 04:09:52;;;;;;;9.45;4.13;;;5.90;99.90;;;;;;5012097;28;20076;-76
2022/01/15 04:12:18;;;;;;;10.73;4.20;;;5.90;99.90;;;;;;5022667;28;20099;-76
2022/01/15 04:14:43;;;;;;;10.15;3.65;;;5.90;99.90;;;;;;5026244;28;20037;-76
2022/01/15 04:17:09;;;;;;;10.02;4.43;;;5.90;99.90;;;;;;5028812;28;20134;-76
2022/01/15 04:19:36;;;;;;;10.75;4.22;;;6.00;99.90;;;;;;5013575;28;20743;-76
2022/01/15 04:22:03;;;;;;;11.55;3.88;;;6.00;99.90;;;;;;5045620;28;20126;-76
2022/01/15 04:24:28;;;;;;;10.35;4.05;;;6.00;99.90;;;;;;5032742;28;20064;-76
2022/01/15 04:26:54;;;;;;;10.63;4.30;;;5.90;99.90;;;;;;5035614;28;20045;-76
2022/01/15 04:29:21;;;;;;;13.10;4.50;;;6.00;99.90;;;;;;5062679;28;20063;-76
2022/01/15 04:31:48;;;;;;;12.52;4.32;;;6.00;99.90;;;;;;5018867;28;20081;-76
2022/01/15 04:34:20;;;;;;;9.55;4.43;;;6.00;99.90;;;;;;5034286;28;20576;-76
2022/01/15 04:36:46;;;;;;;12.35;4.88;;;6.00;99.90;;;;;;5014127;28;20041;-76
2022/01/15 04:39:12;;;;;;;11.02;4.63;;;5.90;99.90;;;;;;5049152;28;20415;-76
2022/01/15 04:41:38;;;;;;;10.95;4.85;;;6.00;99.90;;;;;;5016553;28;20131;-76
2022/01/15 04:44:05;;;;;;;10.48;4.30;;;6.00;99.90;;;;;;5019745;28;20179;-76
2022/01/15 04:46:33;;;;;;;10.75;4.35;;;5.90;99.90;;;;;;5033133;28;20045;-76
2022/01/15 04:48:58;;;;;;;10.63;5.10;;;6.00;99.90;;;;;;5016504;28;20076;-76
2022/01/15 04:51:24;;;;;;;11.25;4.82;;;6.00;99.90;;;;;;5031588;28;20124;-77
2022/01/15 04:53:50;;;;;;;10.13;4.72;;;6.00;99.90;;;;;;5033887;28;20048;-76
2022/01/15 04:56:15;;;;;;;10.85;4.35;;;5.90;99.90;;;;;;5032207;28;20111;-76
2022/01/15 04:58:41;;;;;;;11.20;4.72;;;5.90;99.90;;;;;;5017315;28;20082;-76
2022/01/15 05:01:07;;;;;;;11.93;4.53;;;5.90;99.90;;;;;;5015140;28;20048;-76
2022/01/15 05:03:33;;;;;;;11.50;4.80;;;5.90;99.90;;;;;;5031888;28;20047;-76
2022/01/15 05:05:59;;;;;;;12.95;4.75;;;5.90;99.90;;;;;;5028626;28;20091;-76
2022/01/15 05:08:24;;;;;;;11.90;4.85;;;5.90;99.90;;;;;;5035442;28;20049;-75
2022/01/15 05:10:52;;;;;;;12.90;4.22;;;5.90;99.90;;;;;;5019510;28;20041;-76
2022/01/15 05:13:23;;;;;;;10.27;4.40;;;5.90;99.90;;;;;;5019208;28;20044;-75
2022/01/15 05:15:48;;;;;;;11.65;5.00;;;5.90;99.90;;;;;;5031111;28;20080;-76
2022/01/15 05:18:14;;;;;;;10.93;4.32;;;5.90;99.90;;;;;;5032220;28;20084;-76
2022/01/15 05:20:41;;;;;;;8.88;4.03;;;5.90;99.90;;;;;;5031690;28;20036;-76
2022/01/15 05:23:08;;;;;;;12.07;4.93;;;5.90;99.90;;;;;;5015404;28;20140;-76
2022/01/15 05:25:34;;;;;;;11.43;4.30;;;5.90;99.90;;;;;;5015026;28;20148;-76
2022/01/15 05:28:00;;;;;;;11.60;4.50;;;5.90;99.90;;;;;;5015924;28;20037;-76
2022/01/15 05:30:26;;;;;;;10.95;4.47;;;5.90;99.90;;;;;;5031253;28;20127;-76
2022/01/15 05:32:52;;;;;;;9.18;4.30;;;5.90;99.90;;;;;;5031697;28;20056;-76
2022/01/15 05:35:25;;;;;;;8.88;3.70;;;5.90;99.90;;;;;;5022137;28;20074;-76
2022/01/15 05:37:51;;;;;;;9.38;3.83;;;5.90;99.90;;;;;;5020783;28;20052;-76
2022/01/15 05:40:16;;;;;;;10.32;4.00;;;5.90;99.90;;;;;;5042635;28;20059;-76
2022/01/15 05:42:42;;;;;;;8.63;3.78;;;5.90;99.90;;;;;;5017498;28;20044;-76
2022/01/15 05:45:08;;;;;;;10.75;3.53;;;5.80;99.90;;;;;;5030986;28;20055;-76
2022/01/15 05:47:34;;;;;;;10.38;3.90;;;5.80;99.90;;;;;;5015013;28;20160;-76
2022/01/15 05:50:00;;;;;;;8.35;3.45;;;5.80;99.90;;;;;;5030921;28;20127;-76
2022/01/15 05:52:25;;;;;;;8.77;3.33;;;5.80;99.90;;;;;;5032016;28;20130;-76
2022/01/15 05:54:51;;;;;;;11.40;3.50;;;5.80;99.90;;;;;;5016157;28;20041;-76
2022/01/15 05:57:16;;;;;;;9.52;3.22;;;5.80;99.90;;;;;;5008979;28;20049;-76
2022/01/15 05:59:42;;;;;;;7.78;3.35;;;5.70;99.90;;;;;;5030281;28;20036;-75
2022/01/15 06:02:08;;;;;;;9.63;3.13;;;5.70;99.90;;;;;;5014094;28;20127;-76
2022/01/15 06:04:33;;;;;;;11.38;3.85;;;5.70;99.90;;;;;;5020584;28;20087;-76
2022/01/15 06:06:59;;;;;;;8.95;3.70;;;5.70;99.90;;;;;;5010401;28;20033;-76
2022/01/15 06:09:25;;;;;;;10.55;3.95;;;5.70;99.90;;;;;;5027191;28;20131;-76
2022/01/15 06:11:50;;;;;;;10.18;3.90;;;5.70;99.90;;;;;;5010748;28;20118;-76
2022/01/15 06:14:16;;;;;;;10.05;4.03;;;5.60;99.90;;;;;;5025828;28;20048;-76
2022/01/15 06:16:42;;;;;;;8.50;3.47;;;5.60;99.90;;;;;;4988925;28;20052;-75
2022/01/15 06:19:07;;;;;;;8.73;3.38;;;5.60;99.90;;;;;;4990830;28;20037;-76
2022/01/15 06:21:33;;;;;;;8.75;3.63;;;5.60;99.90;;;;;;5005885;28;20718;-76
2022/01/15 06:23:58;;;;;;;8.70;3.78;;;5.60;99.90;;;;;;5005664;28;20125;-76
2022/01/15 06:26:24;;;;;;;8.32;3.70;;;5.60;99.90;;;;;;4998881;28;20106;-76
2022/01/15 06:28:50;;;;;;;9.73;3.67;;;5.60;99.90;;;;;;5006874;28;20041;-76
2022/01/15 06:31:15;;;;;;;9.20;3.55;;;5.60;99.90;;;;;;4997956;28;20062;-77
2022/01/15 06:33:41;;;;;;;8.73;3.88;;;5.50;99.90;;;;;;5006355;28;20067;-76
2022/01/15 06:36:07;;;;;;;9.15;3.67;;;5.50;99.90;;;;;;5010120;28;20123;-76
2022/01/15 06:38:32;;;;;;;9.68;3.97;;;5.50;99.90;;;;;;5010663;28;20438;-77
2022/01/15 06:40:58;;;;;;;8.77;3.97;;;5.50;99.90;;;;;;5000973;28;20033;-77
2022/01/15 06:43:24;;;;;;;11.80;4.20;;;5.50;99.90;;;;;;5004159;28;20234;-76
2022/01/15 06:45:50;;;;;;;6.97;3.25;;;5.50;99.90;;;;;;5006225;28;20067;-76
2022/01/15 06:48:15;;;;;;;8.77;3.22;;;5.50;99.90;;;;;;5004472;28;20038;-76
2022/01/15 06:50:42;;;;;;;9.50;4.22;;;5.50;99.90;;;;;;5015055;28;20180;-76
2022/01/15 06:53:08;;;;;;;8.07;3.55;;;5.50;99.90;;;;;;5007794;28;20045;-76
2022/01/15 06:55:33;;;;;;;9.70;4.13;;;5.40;99.90;;;;;;4994867;28;20293;-76
2022/01/15 06:57:59;;;;;;;8.65;3.80;;;5.70;99.90;;;;;;4986444;28;20140;-76
2022/01/15 07:00:25;;;;;;;9.48;3.65;;;5.40;99.90;;;;;;4992953;28;20540;-76
2022/01/15 07:02:51;;;;;;;8.02;3.28;;;5.40;99.90;;;;;;5015793;28;20394;-76
2022/01/15 07:05:20;;;;;;;10.50;4.13;;;5.40;99.90;;;;;;4996877;28;20337;-76
2022/01/15 07:07:46;;;;;;;9.93;3.92;;;5.40;99.90;;;;;;5002772;28;20057;-76
2022/01/15 07:10:13;;;;;;;9.63;4.05;;;5.40;99.90;;;;;;5018469;28;20053;-76
2022/01/15 07:12:39;;;;;;;8.30;3.08;;;5.40;99.90;;;;;;4999735;28;20084;-76
2022/01/15 07:15:05;;;;;;;12.30;3.63;;;5.30;99.90;;;;;;4993673;28;20081;-76
2022/01/15 07:17:31;;;;;;;10.70;3.08;;;5.30;99.90;;;;;;5030741;28;20038;-76
2022/01/15 07:19:57;;;;;;;7.13;2.92;;;5.30;99.90;;;;;;5011098;28;20115;-76
2022/01/15 07:22:23;;;;;;;7.63;2.70;;;5.30;99.90;;;;;;5016387;28;20155;-76
2022/01/15 07:24:48;;;;;;;7.25;2.88;;;5.30;99.90;;;;;;5008835;28;20045;-76
2022/01/15 07:27:14;;;;;;;6.80;2.90;;;5.30;99.90;;;;;;5014042;28;20041;-76
2022/01/15 07:29:40;;;;;;;6.43;3.03;;;5.30;99.90;;;;;;5010717;28;20118;-76
2022/01/15 07:32:06;;;;;;;6.43;2.80;;;5.20;99.90;;;;;;4992085;28;20579;-76
2022/01/15 07:34:32;;;;;;;8.13;3.28;;;5.20;99.90;;;;;;5009041;28;20418;-76
2022/01/15 07:36:58;;;;;;;8.40;2.95;;;5.20;99.90;;;;;;5031078;28;20052;-76
2022/01/15 07:39:25;;;;;;;7.80;3.30;;;5.20;99.90;;;;;;4999961;28;20037;-76
2022/01/15 07:41:51;;;;;;;10.00;3.58;;;5.20;99.90;;;;;;4996651;28;20048;-76
2022/01/15 07:44:16;;;;;;;8.40;3.22;;;5.20;99.90;;;;;;5006841;28;20049;-76
2022/01/15 07:46:42;;;;;;;7.72;3.28;;;5.20;99.90;;;;;;5003133;28;20097;-76
2022/01/15 07:49:08;;;;;;;7.75;3.25;;;5.20;99.90;;;;;;5001705;28;20506;-76
2022/01/15 07:51:34;;;;;;;9.23;3.45;;;5.20;99.90;;;;;;5010035;28;20040;-76
2022/01/15 07:54:00;;;;;;;7.07;2.90;;;5.30;99.90;;;;;;5006962;28;20106;-76
2022/01/15 07:56:25;;;;;;;10.27;3.50;;;5.20;99.90;;;;;;5017216;28;20286;-76
2022/01/15 07:58:51;;;;;;;8.27;3.47;;;5.20;99.90;;;;;;5008207;28;20036;-76
2022/01/15 08:01:17;;;;;;;9.50;3.85;;;5.30;99.90;;;;;;5022533;28;21387;-76
2022/01/15 08:03:44;;;;;;;10.95;3.85;;;5.30;99.90;;;;;;5039165;28;20548;-76
2022/01/15 08:06:11;;;;;;;10.25;3.72;;;5.20;99.90;;;;;;5008306;28;20088;-76
2022/01/15 08:08:37;;;;;;;9.50;3.78;;;5.20;99.90;;;;;;4994478;28;20505;-76
2022/01/15 08:11:03;;;;;;;11.55;4.30;;;5.30;99.90;;;;;;4999825;28;20045;-77
2022/01/15 08:13:32;;;;;;;12.13;4.32;;;5.30;99.90;;;;;;5007650;28;20444;-77
2022/01/15 08:15:59;;;;;;;10.43;4.35;;;5.30;99.90;;;;;;5022207;28;20044;-76
2022/01/15 08:18:26;;;;;;;11.77;5.00;;;5.30;99.90;;;;;;5037385;28;20041;-76
2022/01/15 08:20:52;;;;;;;12.70;5.20;;;5.30;99.90;;;;;;5020007;28;20076;-76
2022/01/15 08:23:18;;;;;;;13.80;4.78;;;5.30;99.90;;;;;;4998360;28;20132;-76
2022/01/15 08:25:43;;;;;;;10.90;4.38;;;5.30;99.90;;;;;;5020745;28;20049;-76
2022/01/15 08:28:10;;;;;;;12.45;5.53;;;5.70;99.90;;;;;;5022954;28;20841;-76
2022/01/15 08:30:35;;;;;;;13.30;5.47;;;5.30;99.90;;;;;;5017373;28;20049;-76
2022/01/15 08:33:01;;;;;;;15.45;5.70;;;5.30;99.90;;;;;;4999538;28;20041;-77
2022/01/15 08:35:27;;;;;;;12.27;5.07;;;5.30;99.90;;;;;;5022213;28;20048;-76
2022/01/15 08:37:54;;;;;;;17.30;6.57;;;5.40;99.90;;;;;;5003477;28;20044;-76
2022/01/15 08:40:21;;;;;;;17.17;7.22;;;5.30;99.90;;;;;;5004758;28;20067;-76
2022/01/15 08:42:48;;;;;;;16.42;6.88;;;5.30;99.90;;;;;;5012357;28;20048;-76
2022/01/15 08:45:15;;;;;;;19.38;8.93;;;5.30;99.90;;;;;;5016105;28;20041;-76
2022/01/15 08:47:41;;;;;;;19.05;8.05;;;5.70;99.90;;;;;;5009703;28;20456;-76
2022/01/15 08:50:09;;;;;;;19.35;8.55;;;5.40;99.90;;;;;;5009387;28;20053;-76
2022/01/15 08:52:35;;;;;;;17.50;7.85;;;5.30;99.90;;;;;;5008140;28;20051;-76
2022/01/15 08:55:03;;;;;;;19.90;7.65;;;5.30;99.90;;;;;;4993640;28;20375;-76
2022/01/15 08:57:28;;;;;;;20.70;7.65;;;5.40;99.90;;;;;;4990392;28;20053;-76
2022/01/15 08:59:54;;;;;;;16.17;7.18;;;5.30;99.90;;;;;;5034214;28;20056;-76
2022/01/15 09:02:20;;;;;;;15.93;6.45;;;5.30;99.90;;;;;;4983767;28;20040;-76
2022/01/15 09:04:46;;;;;;;16.77;6.55;;;5.30;99.90;;;;;;4992810;28;20654;-76
2022/01/15 09:07:13;;;;;;;16.30;6.53;;;5.30;99.90;;;;;;4997605;28;20508;-76
2022/01/15 09:09:39;;;;;;;16.52;6.55;;;5.30;99.90;;;;;;4990897;28;21633;-76
2022/01/15 09:12:06;;;;;;;17.92;6.88;;;5.30;99.90;;;;;;5010635;28;20045;-76
2022/01/15 09:14:31;;;;;;;18.30;6.97;;;5.30;99.90;;;;;;5003770;28;20158;-76
2022/01/15 09:16:57;;;;;;;18.00;6.50;;;5.30;99.90;;;;;;5032408;28;20047;-77
2022/01/15 09:19:23;;;;;;;15.82;6.60;;;5.40;99.90;;;;;;5009286;28;20041;-76
2022/01/15 09:21:48;;;;;;;14.55;6.32;;;5.30;99.90;;;;;;4989389;28;20110;-76
2022/01/15 09:24:21;;;;;;;16.58;6.07;;;5.30;99.90;;;;;;4980524;28;20559;-76
2022/01/15 09:32:06;;;;;;;14.40;6.70;;;5.30;99.90;;;;;;5008409;28;20141;-76
2022/01/15 09:34:34;;;;;;;13.82;6.10;;;5.30;99.90;;;;;;4985434;28;20076;-76
2022/01/15 09:37:04;;;;;;;16.08;7.28;;;5.30;99.90;;;;;;5019240;28;20131;-76
2022/01/15 09:39:30;;;;;;;14.60;6.75;;;5.30;99.90;;;;;;5008070;28;20044;-76
2022/01/15 09:41:56;;;;;;;18.40;7.20;;;5.30;99.90;;;;;;4994559;28;20051;-76
2022/01/15 09:44:24;;;;;;;15.27;7.20;;;5.30;99.90;;;;;;5008923;28;20565;-76
2022/01/15 09:46:52;;;;;;;18.00;7.97;;;5.30;99.90;;;;;;5011948;28;20053;-76
2022/01/15 09:49:20;;;;;;;16.63;8.32;;;5.30;99.90;;;;;;4998711;28;20047;-76
2022/01/15 09:51:46;;;;;;;21.13;8.77;;;5.30;99.90;;;;;;4996744;28;21438;-76
2022/01/15 09:54:14;;;;;;;21.23;8.63;;;5.30;99.90;;;;;;5002997;28;20070;-76
2022/01/15 09:56:40;;;;;;;19.13;8.15;;;5.30;99.90;;;;;;5030701;28;20045;-76
2022/01/15 09:59:06;;;;;;;18.77;8.68;;;5.30;99.90;;;;;;5043986;28;20107;-76
2022/01/15 10:01:32;;;;;;;15.43;7.38;;;5.30;99.90;;;;;;5015771;28;20041;-76
2022/01/15 10:03:59;;;;;;;17.42;8.88;;;5.30;99.90;;;;;;5016835;28;20118;-76
2022/01/15 10:06:25;;;;;;;19.10;8.82;;;5.30;99.90;;;;;;5015918;28;20063;-75
2022/01/15 10:09:08;;;;;;;17.40;8.73;;;5.30;99.90;;;;;;5017450;28;20040;-75
2022/01/15 10:11:42;;;;;;;18.00;8.88;;;5.20;99.90;;;;;;5019813;28;20044;-78
2022/01/15 10:14:30;;;;;;;17.48;8.73;;;5.30;99.90;;;;;;5016429;28;20053;-76
2022/01/15 10:16:59;;;;;;;19.73;9.27;;;4.80;99.90;;;;;;5032442;28;22164;-76
2022/01/15 10:19:36;;;;;;;17.50;8.63;;;5.20;99.90;;;;;;5019441;28;20071;-76
2022/01/15 10:22:07;;;;;;;17.20;8.48;;;5.20;99.90;;;;;;5015004;28;20033;-76
2022/01/15 10:24:33;;;;;;;19.80;9.63;;;5.30;99.90;;;;;;4998904;28;20049;-76
2022/01/15 10:27:23;;;;;;;20.77;9.18;;;5.30;99.90;;;;;;5014821;28;20067;-76
2022/01/15 10:29:55;;;;;;;21.20;9.27;;;5.30;99.90;;;;;;5030416;28;20045;-76
2022/01/15 10:32:21;;;;;;;18.50;8.48;;;5.30;99.90;;;;;;4996923;28;20037;-77
2022/01/15 10:34:47;;;;;;;17.17;8.15;;;5.30;99.90;;;;;;5011673;28;20102;-76
2022/01/15 10:37:16;;;;;;;15.73;7.80;;;5.30;99.90;;;;;;5013646;28;20071;-76
2022/01/15 10:40:03;;;;;;;17.27;8.30;;;5.30;99.90;;;;;;5018137;28;20502;-77
2022/01/15 10:42:29;;;;;;;17.77;8.63;;;5.30;99.90;;;;;;5015669;28;20409;-77
2022/01/15 10:44:58;;;;;;;16.75;8.90;;;5.20;99.90;;;;;;5014803;28;20045;-77
2022/01/15 10:47:28;;;;;;;19.13;8.90;;;5.30;99.90;;;;;;5016812;28;20782;-76
2022/01/15 10:50:03;;;;;;;18.15;8.70;;;4.80;99.90;;;;;;5012010;28;20502;-76
2022/01/15 10:52:29;;;;;;;19.73;8.90;;;5.20;99.90;;;;;;5015903;28;20920;-76
2022/01/15 10:55:09;;;;;;;18.00;8.10;;;5.30;99.90;;;;;;5000119;28;20072;-78
2022/01/15 10:57:54;;;;;;;19.60;8.48;;;5.30;99.90;;;;;;5034371;28;20048;-76
2022/01/15 11:00:21;;;;;;;17.63;8.63;;;5.20;99.90;;;;;;5013242;28;20044;-77
2022/01/15 11:02:52;;;;;;;16.95;8.15;;;5.20;99.90;;;;;;5009999;28;20121;-77
2022/01/15 11:05:19;;;;;;;;;;;5.20;99.90;;;;;;5016961;28;20135;-77
2022/01/15 11:07:45;;;;;;;19.42;8.73;;;5.10;99.90;;;;;;5000891;28;19925;-77
2022/01/15 11:10:11;;;;;;;18.25;8.90;;;5.10;99.90;;;;;;4995790;28;20048;-77
2022/01/15 11:12:37;;;;;;;20.55;9.52;;;5.10;99.90;;;;;;5011131;28;20045;-77
2022/01/15 11:15:03;;;;;;;20.52;9.13;;;5.10;99.90;;;;;;5017639;28;20540;-78
2022/01/15 11:17:32;;;;;;;21.48;9.32;;;5.10;99.90;;;;;;5015466;28;20052;-76
2022/01/15 11:20:00;;;;;;;21.73;9.45;;;5.10;99.90;;;;;;4994021;28;20130;-77
2022/01/15 11:22:26;;;;;;;25.75;11.35;;;5.10;99.90;;;;;;4999514;28;20175;-77
2022/01/15 11:24:52;;;;;;;25.23;10.05;;;5.20;99.90;;;;;;5014075;28;20360;-76
2022/01/15 11:27:18;;;;;;;19.50;9.40;;;5.20;99.90;;;;;;5013918;28;20486;-77
2022/01/15 11:29:46;;;;;;;24.45;11.13;;;5.10;99.90;;;;;;4998415;28;20532;-77
2022/01/15 11:32:13;;;;;;;23.02;10.70;;;5.10;99.90;;;;;;5013182;28;20412;-77
2022/01/15 11:34:41;;;;;;;25.55;11.15;;;5.10;99.90;;;;;;4992099;28;20053;-78
2022/01/15 11:37:19;;;;;;;28.70;12.05;;;5.10;99.90;;;;;;5013418;28;20033;-77
2022/01/15 11:39:46;;;;;;;25.60;11.77;;;5.00;99.90;;;;;;5012799;28;20075;-77
2022/01/15 11:42:25;;;;;;;24.90;11.57;;;5.10;99.90;;;;;;5018093;28;20045;-77
2022/01/15 11:44:51;;;;;;;26.75;11.60;;;5.00;99.90;;;;;;5001973;28;20041;-77
2022/01/15 11:47:21;;;;;;;30.48;13.73;;;5.00;99.90;;;;;;5047474;28;20033;-78
2022/01/15 11:49:51;;;;;;;28.25;11.88;;;5.10;99.90;;;;;;5011827;28;20142;-78
2022/01/15 11:52:18;;;;;;;30.17;13.75;;;5.10;99.90;;;;;;5018842;28;20098;-77
2022/01/15 11:55:02;;;;;;;31.95;14.15;;;5.10;99.90;;;;;;5024112;28;20052;-77
2022/01/15 11:57:32;;;;;;;30.45;13.18;;;5.10;99.90;;;;;;5001838;28;20056;-77
2022/01/15 12:00:00;;;;;;;24.42;12.00;;;5.00;99.90;;;;;;5048923;28;20492;-77
2022/01/15 12:02:29;;;;;;;31.20;13.35;;;5.00;99.90;;;;;;4993684;28;20050;-77
2022/01/15 12:05:15;;;;;;;40.50;14.68;;;4.90;99.90;;;;;;5052351;28;20057;-77
2022/01/15 12:07:45;;;;;;;37.25;14.45;;;4.90;99.90;;;;;;5028461;28;20597;-77
2022/01/15 12:10:12;;;;;;;36.83;13.93;;;4.90;99.90;;;;;;5016849;28;20056;-77
2022/01/15 12:12:50;;;;;;;35.67;14.45;;;4.80;99.90;;;;;;5011748;28;20471;-77
2022/01/15 12:15:26;;;;;;;38.58;14.63;;;4.80;99.90;;;;;;5008818;28;20049;-77
2022/01/15 12:17:54;;;;;;;36.92;15.55;;;4.80;99.90;;;;;;5033724;28;20419;-77
2022/01/15 12:20:21;;;;;;;34.58;13.48;;;4.80;99.90;;;;;;4989069;28;20572;-77
2022/01/15 12:22:51;;;;;;;34.80;13.45;;;4.80;99.90;;;;;;4997228;28;20053;-77
2022/01/15 12:25:17;;;;;;;30.27;13.82;;;4.80;99.90;;;;;;5045278;28;20060;-77
2022/01/15 12:27:46;;;;;;;34.70;14.25;;;4.80;99.90;;;;;;4991988;28;20061;-79
2022/01/15 12:30:16;;;;;;;35.65;14.23;;;4.80;99.90;;;;;;5011125;28;20041;-77
2022/01/15 12:32:44;;;;;;;34.13;13.95;;;4.80;99.90;;;;;;5019957;28;21487;-80
2022/01/15 12:35:22;;;;;;;32.97;13.18;;;4.70;99.90;;;;;;5003348;28;20049;-76
2022/01/15 12:38:13;;;;;;;30.75;13.70;;;4.80;99.90;;;;;;4992794;28;20053;-76
2022/01/15 12:40:47;;;;;;;40.55;14.75;;;4.70;99.90;;;;;;5033925;28;20091;-76
2022/01/15 12:43:16;;;;;;;35.20;14.75;;;4.70;99.90;;;;;;5021782;28;20045;-79
2022/01/15 12:45:44;;;;;;;42.45;14.43;;;4.70;99.90;;;;;;5052774;28;20088;-79
2022/01/15 12:48:15;;;;;;;40.28;15.55;;;4.70;99.90;;;;;;5017098;28;20041;-77
2022/01/15 12:50:53;;;;;;;34.13;13.77;;;5.00;99.90;;;;;;5034350;28;20041;-78
2022/01/15 12:53:22;;;;;;;38.75;15.63;;;4.80;99.90;;;;;;5035137;28;20049;-77
2022/01/15 12:55:48;;;;;;;43.63;14.88;;;4.80;99.90;;;;;;5031197;28;20081;-77
2022/01/15 12:58:17;;;;;;;36.78;14.63;;;4.80;99.90;;;;;;5009792;28;20266;-76
2022/01/15 13:00:43;;;;;;;37.20;14.00;;;4.80;99.90;;;;;;5017718;28;20073;-76
2022/01/15 13:03:11;;;;;;;36.83;15.88;;;4.80;99.90;;;;;;5049394;28;20073;-77
2022/01/15 13:05:42;;;;;;;40.30;17.20;;;4.80;99.90;;;;;;5044858;28;20037;-79
2022/01/15 13:08:11;;;;;;;37.65;16.42;;;4.80;99.90;;;;;;5013551;28;20046;-76
2022/01/15 13:10:52;;;;;;;34.17;15.40;;;4.80;99.90;;;;;;5012823;28;20122;-76
2022/01/15 13:13:34;;;;;;;35.35;15.52;;;4.80;99.90;;;;;;5014298;28;20061;-76
2022/01/15 13:16:03;;;;;;;41.17;17.70;;;4.80;99.90;;;;;;4999969;28;20408;-77
2022/01/15 13:18:32;;;;;;;42.85;17.55;;;4.70;99.90;;;;;;5016489;28;20053;-77
2022/01/15 13:20:58;;;;;;;45.58;17.98;;;5.50;99.90;;;;;;5012500;28;20116;-77
2022/01/15 13:23:33;;;;;;;45.30;19.25;;;4.70;99.90;;;;;;5011651;28;20070;-77